Khalid Al Kamali

Olheiro-Chefe - Sharjah
3 Fev 2028
Quinta-feira
Processo

Personalidade

Adaptabilidade (4) Ambição (6) Controvérsia (2) Lealdade (2) Pressão (19) Profissionalismo (18) Espírito Esportivo (14) Temperamento (9)

Perfil

Estilo de Treinamento Democrático
Licença Continental A
Determinação 13
Gestão de Pessoas 11
Motivação 10
Disciplina 13
Satisfação no Trabalho
100%
Fadiga
0%
Função Olheiro-Chefe
Salário 89.1K p/s
Contrato 14.03.2030

Desempenho

Comportamento Bom
Eficácia do Treinamento
43%
Desenvolvimento do Jogador
55%
Prevenção de Lesões
50%
Implementação Tática
30%

Eventos Recentes

Participou de uma reunião de recrutamento agora
Recomendou um alvo de transferência agora
Recomendou um alvo de transferência agora
Avaliou um jogador 7d atrás
Avaliou um jogador 7d atrás
Observou uma partida 7d atrás
Avaliou um jogador 7d atrás
Avaliou um jogador 7d atrás

Monitorando agora

191
Jogador Clube Status Habilidade Confiança Observado Última observação Último voto
Tiago Gordillo San Miguel Ativo 85 / 95 40% 3 01.02.2028 -
Nika Kvaratskhelia Tskhinvali Ativo 84 / 100 40% 3 01.02.2028 -
Ernie Weaver AFC Wimbledon Ativo 107 / 121 40% 1 01.02.2028 -
Adam Gnezda Čerin Al Wahda Perdido 129 / 130 69% 1 31.01.2028 Aprovar
Tyson Pearce St. Louis CITY SC Ativo 106 / 99 40% 2 30.01.2028 -
Dmitry Pestryakov Dinamo Moscow Ativo 127 / 123 40% 3 30.01.2028 -
Moustapha Sémbène Hajer Ativo 114 / 112 40% 6 29.01.2028 -
Abubacarr Sedi Kinteh Al-Hilal Ativo 134 / 136 40% 1 29.01.2028 -
Maxim Radchenko Rostov Ativo 86 / 92 40% 3 28.01.2028 -
Josh Nichols Tranmere Rovers Ativo 123 / 125 40% 7 28.01.2028 -
Celías Ingenthron Vélez Ativo 122 / 125 40% 2 28.01.2028 -
Mikkel Hope Haugesund Ativo 107 / 107 40% 5 27.01.2028 -
Konta Ismaily Ativo 104 / 105 40% 2 27.01.2028 -
Jovan Milosavljević Kalmar FF Ativo 98 / 107 40% 1 27.01.2028 -
Yaseen Al-Jaber Al-Saudi Al-Watani Ativo 79 / 88 40% 1 25.01.2028 -
David Asayure Lokomotivi Ativo 71 / 86 40% 2 24.01.2028 -
Renato Júnior Al Wasl Ativo 116 / 124 69% 1 24.01.2028 Aprovar
Matías Canedo Rampla Juniors Ativo 91 / 91 40% 2 21.01.2028 -
Jamie Wähling Hibernians Ativo 79 / 91 40% 1 21.01.2028 -
Juan Camilo Córdoba Deportivo Pereira Ativo 83 / 93 40% 3 20.01.2028 -
Saman Rezaeian Gostaresh Foulad Ativo 114 / 116 40% 1 18.01.2028 -
Lucas Camejo River Plate Ativo 83 / 91 40% 2 17.01.2028 -
Ricky Atletico Venezuela Ativo 90 / 102 40% 7 16.01.2028 -
Rasmus Nehrman Gefle Ativo 77 / 88 40% 2 16.01.2028 -
Omar El Adawy El Dakhleya Ativo 90 / 93 40% 1 16.01.2028 -
Diego Vargas San Marcos de Arica Ativo 92 / 97 40% 2 15.01.2028 -
Keagan Phiri Platinum Stars Ativo 115 / 109 40% 1 15.01.2028 -
Luis Otávio Colorado Rapids Ativo 116 / 122 40% 3 12.01.2028 -
Harbor Miller LA Galaxy Ativo 105 / 105 40% 2 12.01.2028 -
Dominik Chong Qui Atlanta United FC Ativo 102 / 95 40% 3 11.01.2028 -
David Valencia Alianza Petrolera Ativo 129 / 131 40% 1 11.01.2028 -
Majid Rezaeian Rah Ahan Ativo 100 / 110 40% 2 10.01.2028 -
Abdul Aziz Al-Fawaz Al-Wehda Ativo 101 / 104 40% 2 10.01.2028 -
Felipe Obradovich Ferro Carril Oeste Ativo 114 / 114 40% 3 10.01.2028 -
Siaka Sidibé Al Wasl Perdido 122 / 127 69% 1 10.01.2028 Aprovar
Bautista Reinhardt Hrvatski Dragovoljac Ativo 89 / 92 40% 1 31.12.2027 -
Juan Morán Godoy Cruz Ativo 104 / 112 40% 4 09.12.2027 -
Agustín Obregón River Plate Ativo 118 / 120 40% 2 06.12.2027 -
Esquerdinha Shrewsbury Town Ativo 129 / 124 40% 1 06.12.2027 -
Emiliano Bértoli Patronato Ativo 88 / 99 40% 4 23.11.2027 -
Jair Collahuazo Kudrivka Ativo 98 / 109 40% 3 22.11.2027 -
Nicolas Sport Recife Ativo 103 / 110 40% 3 22.11.2027 -
Joel Ezra Enyimba Ativo 90 / 101 40% 3 21.11.2027 -
Gonçalo Oliveira Benfica Ativo 112 / 121 40% 3 19.11.2027 -
Nour Ashraf ENPPI Ativo 84 / 94 40% 2 19.11.2027 -
Marvelous Freedom Ikorodu City Ativo 95 / 94 40% 5 17.11.2027 -
Óscar Hinojosa Metropolitanos Ativo 87 / 87 40% 3 17.11.2027 -
Mauro Carrizo Atlético Tucumán Ativo 103 / 107 40% 5 15.11.2027 -
Gift Udoh Ikorodu City Ativo 83 / 93 40% 2 15.11.2027 -
Julián Bazán Philadelphia Union Ativo 106 / 120 40% 3 14.11.2027 -
Hervin Goyes Deportivo Pasto Ativo 111 / 112 40% 2 14.11.2027 -
Godwin Oham Warri Wolves Ativo 92 / 90 40% 6 13.11.2027 -
Olivier Mambwa Young Boys Ativo 102 / 120 40% 1 13.11.2027 -
José Movillo O'Higgins Ativo 86 / 87 40% 1 10.11.2027 -
Alejandro Almaraz Nueva Chicago Ativo 101 / 118 40% 1 05.11.2027 -
Ronan Kpakio Cardiff City Ativo 125 / 125 40% 2 02.11.2027 -
Samuel Posada Leones Ativo 87 / 91 40% 6 10.10.2027 -
Olaniyi Saheed Kwara United Ativo 90 / 101 40% 2 05.10.2027 -
Tobias Moi Bodo/Glimt Ativo 114 / 111 40% 1 05.10.2027 -
Issa Yusuf Shooting Stars Ativo 101 / 92 40% 2 01.10.2027 -
David Damboama El-Kanemi Warriors Ativo 90 / 92 40% 1 01.10.2027 -
Brandon Powell Wigan Athletic Ativo 109 / 122 40% 2 29.09.2027 -
Hosea Michael Remo Stars Ativo 89 / 93 40% 2 29.09.2027 -
José Correa Deportivo Tachira Ativo 86 / 96 40% 2 27.09.2027 -
Fillip Jenssen Riise Stabaek Ativo 91 / 106 40% 1 27.09.2027 -
Ignacio Fernández Boston River Ativo 85 / 100 40% 1 26.09.2027 -
Bruno Ribeiro Cortulua Ativo 82 / 88 40% 1 19.09.2027 -
Nazareno Roselli Defensa y Justicia Ativo 119 / 119 40% 1 17.09.2027 -
Yiandro Raap Ilves Ativo 92 / 102 40% 2 15.09.2027 -
Chibueze Oputa Rangers International Ativo 84 / 90 40% 2 13.09.2027 -
Esteban de Lima Tacuarembo Ativo 86 / 97 40% 2 12.09.2027 -
Ángel Aguayo Sol de America Ativo 94 / 98 40% 3 12.09.2027 -
Mbekezeli Mbokazi Chicago Fire Ativo 116 / 130 40% 2 11.09.2027 -
Daniel Gomez Valledupar Ativo 90 / 92 40% 1 11.09.2027 -
Mohamed Bolivar Barranquilla Ativo 83 / 94 40% 1 08.09.2027 -
Jofrank Istifanus Nasarawa United Ativo 97 / 88 40% 1 02.09.2027 -
Jens Hjertø-Dahl Hull City Ativo 126 / 131 40% 1 31.08.2027 -
Trey Nyoni Rotherham United Ativo 143 / 141 40% 2 29.08.2027 -
Teo Rodríguez Pagano River Plate Ativo 120 / 123 40% 1 28.08.2027 -
Pablo Alcoba Albion Ativo 85 / 89 40% 1 25.08.2027 -
Frankie Westfield Philadelphia Union Ativo 109 / 113 40% 1 25.08.2027 -
Pablo Aguiar Independiente Ativo 102 / 111 40% 1 23.08.2027 -
Otto Tiitinen Ilves Ativo 102 / 99 40% 1 16.08.2027 -
Onuorah Onyedika Kun Khalifat Ativo 87 / 85 40% 1 16.08.2027 -
Karsten Ekorness Stabaek Ativo 87 / 103 40% 1 16.08.2027 -
Danylo Ishchenko Metalist Ativo 91 / 97 40% 1 26.07.2027 -
Fuzy Taylor Medeama Ativo 74 / 86 40% 1 26.07.2027 -
Christian Saydee Wigan Athletic Ativo 122 / 114 40% 1 12.07.2027 -
Abu Kamara Portsmouth Ativo 113 / 122 40% 1 12.07.2027 -
Bojan Radulović Huddersfield Town Ativo 107 / 117 40% 1 12.07.2027 -
Aaron Drinan Swindon Town Ativo 105 / 103 40% 1 07.07.2027 -
Alassana Jatta Notts County Ativo 99 / 109 40% 1 07.07.2027 -
Abdoulaye Kanté Al-Ettifaq Ativo 121 / 125 40% 4 01.07.2027 -
Juan Giménez Celta Ativo 109 / 127 40% 2 01.07.2027 -
Tiago Freitas Benfica Ativo 111 / 120 40% 1 30.06.2027 -
Mauricio Amaro Atlanta United FC Ativo 124 / 126 40% 2 29.06.2027 -
Daniel Vernattus Metalist Ativo 87 / 96 40% 2 29.06.2027 -
Finley McAllister Grimsby Town Ativo 94 / 94 40% 1 28.06.2027 -
Latrell Aken Groningen Ativo 102 / 122 40% 1 24.06.2027 -
Tobias Slotsager Casertana Ativo 122 / 116 40% 1 22.06.2027 -
Daniel Awuni Aduana Stars Ativo 98 / 93 40% 1 11.06.2027 -
Yegor Gulyaev Chaika Ativo 94 / 90 40% 1 11.06.2027 -
Lander Astiazarán Real Sociedad Ativo 113 / 113 40% 1 11.06.2027 -
Jofre Torrents Ajax Ativo 123 / 133 40% 1 10.06.2027 -
Darryl Bakola Padova Ativo 111 / 116 40% 1 10.06.2027 -
Manu Rodríguez Gijón Ativo 95 / 113 40% 1 10.06.2027 -
Oscar Schwartau Norwich City Ativo 132 / 125 40% 1 09.06.2027 -
Mfundo Vilakazi Kaizer Chiefs Ativo 108 / 117 40% 2 06.06.2027 -
Alessandro Ciardi Parma Ativo 106 / 103 40% 1 06.06.2027 -
Mattia Rutigliano Pro Vercelli Ativo 88 / 101 40% 1 06.06.2027 -
Valentin Atangana Al-Ahli Ativo 130 / 135 40% 2 03.06.2027 -
Shea Lacey Wolverhampton Ativo 115 / 125 40% 1 03.06.2027 -
Ethan Williams Peterborough United Ativo 118 / 117 40% 1 03.06.2027 -
Jonathan Klinsmann Cesena Ativo 130 / 131 40% 1 01.06.2027 -
George Wickens Lincoln City Ativo 113 / 122 40% 1 01.06.2027 -
Heorhii Yermakov Metalist Ativo 115 / 123 40% 1 01.06.2027 -
James Morris Leyton Orient Ativo 106 / 118 40% 1 31.05.2027 -
Percy Jali Free State Stars Ativo 87 / 97 40% 2 11.01.2027 -
Gilberto Mora Atlético Madrid Ativo 128 / 132 40% 1 11.01.2027 -
Matheus Gonçalves Al-Ahli Ativo 121 / 127 40% 1 11.01.2027 -
Markus Kuster Paralimni Ativo 102 / 109 40% 2 01.01.2027 -
Alexandr Koryakin Krasnodar Ativo 117 / 118 40% 3 30.12.2026 -
Walid Juma Al Shaab Ativo 120 / 116 40% 3 30.12.2026 -
Bento Al-Nassr Ativo 141 / 131 40% 6 29.12.2026 -
Brandon Petersen Kaizer Chiefs Ativo 108 / 115 40% 5 29.12.2026 -
Rashid Al Junaibi Al Ahli Ativo 117 / 116 40% 7 28.12.2026 -
Martin Vantruba Spartak Trnava Ativo 111 / 112 40% 1 28.12.2026 -
Patrik Demjén MTK Budapest Ativo 121 / 111 40% 2 26.12.2026 -
Sipho Chaine Orlando Pirates Ativo 109 / 116 40% 5 23.12.2026 -
Bojan Milosavljević Lokomotiv Plovdiv Ativo 110 / 105 40% 1 23.12.2026 -
Peter Leeuwenburgh Apollon Ativo 115 / 118 40% 2 22.12.2026 -
Fahad Hassan Al Shabab Ativo 115 / 127 40% 7 19.12.2026 -
Alexis Guendouz JS Kabylie Ativo 115 / 114 40% 2 19.12.2026 -
Adam Jakubech MFK Michalovce Ativo 95 / 114 40% 2 18.12.2026 -
Bradley Mabunda SuperSport United Ativo 115 / 111 40% 3 17.12.2026 -
Mohamed El Amine Ramdaoui USM Alger Ativo 97 / 102 40% 2 17.12.2026 -
Rodrigo Ribeiro Bayer Leverkusen Ativo 122 / 133 40% 1 17.12.2026 -
Luke Baartman ES Mostaganem Ativo 101 / 110 40% 1 13.12.2026 -
Oussama Benbout USM Alger Ativo 100 / 107 40% 2 10.12.2026 -
Sergey Gribov Dinamo Bryansk Ativo 72 / 87 40% 1 08.12.2026 -
Víctor Guzmán Sporting CP Ativo 101 / 103 40% 2 06.12.2026 -
Osman Hadžikić Honved Ativo 104 / 115 40% 1 06.12.2026 -
Andrey Domotsev Mashuk Ativo 88 / 83 40% 1 06.12.2026 -
Lucas Bruera Carabobo Ativo 114 / 118 40% 6 02.12.2026 -
Jonás Luna Santa Clara Ativo 112 / 122 40% 2 02.12.2026 -
Gustavo Ferreira Benfica Ativo 92 / 86 40% 1 29.11.2026 -
Žiga Frelih NK Celje Ativo 119 / 109 40% 3 28.11.2026 -
Lévy Néne FC Nordsjaelland Ativo 107 / 128 40% 3 27.11.2026 -
André Miranda Porto Ativo 106 / 104 40% 1 26.11.2026 -
Alejandro Araque Deportivo Tachira Ativo 118 / 108 40% 4 20.11.2026 -
Fedor Lapoukhov CSKA Sofia Ativo 126 / 122 40% 2 20.11.2026 -
Nawaf Al-Bishri Al-Hazem Ativo 73 / 82 40% 1 18.11.2026 -
Alexandr Selikhov Ural Ativo 115 / 112 40% 1 16.11.2026 -
Tomás Durso Atlético Tucumán Ativo 122 / 116 40% 1 15.11.2026 -
Nikita Kuzin Kaluga Ativo 72 / 90 40% 2 13.11.2026 -
David Kalokoh Ajax Ativo 113 / 120 40% 2 12.11.2026 -
Juan Francisco Rossel Universidad Catolica Ativo 87 / 95 40% 1 12.11.2026 -
Richard Ludha MFK Skalica Ativo 99 / 111 40% 7 05.11.2026 -
Evgeny Staver Rubin Ativo 99 / 103 40% 4 01.11.2026 -
Martin Trnovský Podbrezova Ativo 100 / 107 40% 2 25.10.2026 -
Alasana Yirajang AS Trencin Ativo 103 / 121 40% 1 22.10.2026 -
Charles Bassey Smouha Ativo 86 / 88 40% 2 20.10.2026 -
Nikolay Zlatev Cherno More Ativo 93 / 109 40% 2 20.10.2026 -
Dominik Takáč Slovan Bratislava Ativo 136 / 134 40% 1 17.10.2026 -
Nikola Vasilj Al-Diriyah Ativo 142 / 140 40% 3 15.10.2026 -
Johannes Kreidl KuPS Ativo 113 / 112 40% 4 12.10.2026 -
Román Albornoz Temperley Ativo 91 / 92 40% 2 09.10.2026 -
Hílder Arboleda Union Magdalena Ativo 72 / 89 40% 1 09.10.2026 -
Abubakar Garba Grasshopper Ativo 95 / 105 40% 1 09.10.2026 -
Roberto Iliev Slavia Sofia Ativo 95 / 96 40% 1 08.10.2026 -
Aljaž Ivačič DAC Dunajska Streda Ativo 114 / 114 40% 2 07.10.2026 -
Faisal Al-Abdulwahed Al-Fateh Ativo 79 / 90 40% 1 05.10.2026 -
Thiago Perugini San Lorenzo Ativo 100 / 98 40% 1 05.10.2026 -
Jeremías Reyna Vélez Ativo 102 / 106 40% 1 05.10.2026 -
Isak Pettersson IF Elfsborg Ativo 112 / 104 40% 2 03.10.2026 -
Nikita Kokarev Zenit Ativo 104 / 122 40% 1 03.10.2026 -
Joel Erlinch Racing Ativo 74 / 94 40% 1 29.09.2026 -
Giancarlo García Deportivo Pereira Ativo 86 / 87 40% 1 28.09.2026 -
Ian Escobar Vélez Ativo 96 / 91 40% 1 25.09.2026 -
Fletcher Boyd Aston Villa Ativo 83 / 92 40% 1 10.09.2026 -
Daniel Naumov Botev Plovdiv Ativo 115 / 108 40% 1 09.09.2026 -
Mads Hedenstad AGF Ativo 127 / 122 40% 1 07.09.2026 -
Azeez Agboola Remo Stars Ativo 66 / 85 40% 1 06.09.2026 -
Mohamed Raafat Al Ahly Ativo 78 / 84 40% 2 05.09.2026 -
Bautista La Licata Belgrano Ativo 87 / 100 40% 1 05.09.2026 -
Gonzalo Sosa Defensa y Justicia Ativo 76 / 93 40% 1 04.09.2026 -
Laureano Paez Colón Ativo 84 / 96 40% 1 04.09.2026 -
Justin Clarke Everton Ativo 81 / 95 40% 1 04.09.2026 -
Maximo Ingravidi Colón Ativo 93 / 101 40% 1 02.09.2026 -
Vakhtang Salia Newcastle United Ativo 92 / 109 40% 1 17.08.2026 -
Ludovit Reis Werder Bremen Ativo 117 / 135 40% 1 03.08.2026 -